Time;durP1;ratioP1;P1;durP2;ratioP2;P2;SDS_P1;SDS_P2;PMS_P1;PMS_P2;Temp;Humidity;BMP_temperature;BMP_pressure;BME280_temperature;BME280_humidity;BME280_pressure;Samples;Min_cycle;Max_cycle;Signal;HPM_P1;HPM_P2
2022/08/24 08:07:42;;;;;;;9.48;1.98;;;;;;;23.60;47.24;94263.91;4958370;29;20208;-96
2022/08/24 08:10:29;;;;;;;2.85;1.92;;;;;;;23.73;47.02;94267.81;4944605;29;20202;-92
2022/08/24 08:13:15;;;;;;;4.88;2.60;;;;;;;23.79;48.54;94270.84;4938029;29;20569;-96
2022/08/24 08:16:00;;;;;;;6.40;1.77;;;;;;;24.06;48.79;94269.44;4927218;29;20199;-96
2022/08/24 08:18:44;;;;;;;2.80;1.50;;;;;;;23.42;48.40;94269.06;4920817;29;20230;-93
2022/08/24 08:25:02;;;;;;;4.60;2.10;;;;;;;23.82;48.80;94271.66;4933216;29;20231;-96
2022/08/24 08:27:48;;;;;;;2.10;1.70;;;;;;;23.72;45.28;94275.69;4880361;29;20219;-96
2022/08/24 08:31:00;;;;;;;1.30;1.20;;;;;;;23.87;41.55;94268.22;4907515;29;20209;-91
2022/08/24 08:33:44;;;;;;;3.00;1.48;;;;;;;23.94;40.90;94274.84;4915915;29;20198;-94
2022/08/24 08:36:30;;;;;;;3.75;1.70;;;;;;;23.71;44.56;94271.34;4923678;29;20203;-96
2022/08/24 08:39:18;;;;;;;3.08;1.60;;;;;;;22.73;43.60;94272.72;4925907;29;20208;-96
2022/08/24 08:42:48;;;;;;;3.92;1.58;;;;;;;24.04;41.58;94277.97;4932253;29;20207;-96
2022/08/24 08:45:48;;;;;;;3.20;1.80;;;;;;;24.10;41.88;94270.25;4922948;29;20294;-91
2022/08/24 08:49:25;;;;;;;2.53;1.55;;;;;;;23.72;43.48;94274.94;4916728;29;20215;-94
2022/08/24 08:52:54;;;;;;;3.20;1.52;;;;;;;23.58;44.77;94260.97;4933096;29;20202;-96
2022/08/24 08:56:02;;;;;;;3.60;1.70;;;;;;;24.35;41.96;94265.19;4923277;29;20217;-95
2022/08/24 08:59:09;;;;;;;3.08;1.40;;;;;;;23.69;43.31;94271.31;4912416;29;20198;-96
2022/08/24 09:27:18;;;;;;;3.08;1.52;;;;;;;24.52;43.58;94267.75;1439197;23;20575;-88
2022/08/24 09:30:10;;;;;;;3.20;1.67;;;;;;;24.46;42.69;94275.47;5022078;28;20199;-96
2022/08/24 09:33:02;;;;;;;3.15;1.55;;;;;;;24.32;44.06;94270.13;5019335;28;20212;-96
2022/08/24 09:36:38;;;;;;;5.88;1.85;;;;;;;25.90;42.63;94270.09;5004184;28;20211;-96
2022/08/24 09:39:35;;;;;;;2.90;1.90;;;;;;;25.23;41.70;94265.84;5009266;28;20207;-96
2022/08/24 09:42:54;;;;;;;2.83;1.95;;;;;;;25.18;42.80;94264.31;5035156;28;20533;-95
2022/08/24 09:46:18;;;;;;;2.88;1.73;;;;;;;24.73;43.91;94262.53;5019977;28;20240;-96
2022/08/24 09:49:29;;;;;;;1.42;1.27;;;;;;;25.09;41.62;94269.13;5016543;28;20246;-96
2022/08/24 09:53:19;;;;;;;4.78;2.00;;;;;;;25.69;40.41;94263.22;5027280;28;20202;-96
2022/08/24 09:56:10;;;;;;;2.38;1.42;;;;;;;25.85;39.49;94257.81;5015068;28;20265;-91
2022/08/24 09:59:13;;;;;;;1.67;1.50;;;;;;;24.94;42.33;94264.47;5022453;28;20196;-96
2022/08/24 10:02:25;;;;;;;3.35;2.00;;;;;;;25.05;42.01;94263.31;5021004;28;20223;-96
2022/08/24 10:05:55;;;;;;;2.63;1.75;;;;;;;25.88;40.23;94261.44;5024713;28;20291;-96
2022/08/24 10:12:30;;;;;;;1.38;1.27;;;;;;;25.50;40.94;94244.16;5162024;23;20225;-96
2022/08/24 10:15:27;;;;;;;3.88;1.80;;;;;;;25.98;39.56;94250.91;4977045;28;20277;-96
2022/08/24 10:18:55;;;;;;;1.60;1.40;;;;;;;25.35;39.52;94252.50;4978945;28;20255;-96
2022/08/24 10:22:54;;;;;;;3.05;1.40;;;;;;;26.17;38.72;94249.78;4959416;28;20261;-96
2022/08/24 10:25:53;;;;;;;3.55;1.38;;;;;;;26.93;38.65;94240.28;4933859;29;20241;-96
2022/08/24 10:29:22;;;;;;;2.05;1.30;;;;;;;26.23;38.19;94242.72;4946617;29;20210;-96
2022/08/24 10:32:24;;;;;;;6.57;1.58;;;;;;;27.60;36.65;94239.06;4952545;28;20178;-95
2022/08/24 10:35:21;;;;;;;5.95;1.70;;;;;;;27.14;38.51;94247.06;4970110;28;20272;-96
2022/08/24 10:43:32;;;;;;;3.85;1.40;;;;;;;26.19;41.37;94244.09;4957900;28;20206;-96
2022/08/24 10:46:00;;;;;;;4.35;1.67;;;;;;;27.11;36.42;94245.59;4966577;28;20236;-96
2022/08/24 10:49:33;;;;;;;2.08;1.42;;;;;;;26.43;37.13;94243.06;4939641;29;20210;-96
2022/08/24 10:52:23;;;;;;;3.65;1.40;;;;;;;27.18;36.24;94236.34;4952461;29;20202;-96
2022/08/24 10:55:20;;;;;;;2.53;1.45;;;;;;;27.29;35.62;94235.06;4956089;28;20295;-95
2022/08/24 10:58:22;;;;;;;2.25;1.38;;;;;;;27.01;38.18;94233.94;4946471;29;20202;-96
2022/08/24 11:01:16;;;;;;;1.88;1.40;;;;;;;27.07;37.82;94237.63;4960328;28;20185;-95
2022/08/24 11:04:01;;;;;;;2.90;1.45;;;;;;;26.93;37.16;94241.03;4947757;28;20281;-96
2022/08/24 11:07:29;;;;;;;2.55;1.30;;;;;;;26.87;38.09;94223.66;4956838;28;20208;-92
2022/08/24 11:10:28;;;;;;;3.83;1.60;;;;;;;26.53;38.13;94229.63;4936620;29;20210;-96
2022/08/24 11:13:26;;;;;;;1.85;1.45;;;;;;;26.52;38.19;94224.56;4938806;29;20206;-95
2022/08/24 11:16:28;;;;;;;3.30;1.27;;;;;;;26.18;37.04;94231.13;4937203;29;20349;-95
2022/08/24 11:19:34;;;;;;;2.65;1.52;;;;;;;26.88;36.62;94239.53;4968432;28;20608;-94
2022/08/24 11:22:39;;;;;;;3.35;1.58;;;;;;;26.32;37.18;94232.84;4924303;29;20194;-90
2022/08/24 11:25:29;;;;;;;2.17;1.20;;;;;;;27.14;34.91;94235.56;4939318;29;20316;-95
2022/08/24 11:28:52;;;;;;;1.40;1.30;;;;;;;26.92;36.39;94228.06;4927083;29;20206;-95
2022/08/24 11:31:41;;;;;;;1.38;1.13;;;;;;;26.16;35.51;94228.25;4964215;28;20265;-95
2022/08/24 11:34:33;;;;;;;4.10;1.50;;;;;;;27.23;35.08;94225.59;4959243;28;20632;-94
2022/08/24 11:37:29;;;;;;;1.67;1.35;;;;;;;27.41;35.37;94219.38;4964044;28;20217;-96
2022/08/24 11:40:16;;;;;;;2.75;1.63;;;;;;;27.93;35.19;94216.41;4943806;29;20234;-96
2022/08/24 11:43:31;;;;;;;6.00;1.52;;;;;;;28.43;34.73;94222.69;4959408;28;20217;-95
2022/08/24 12:17:25;;;;;;;5.32;1.50;;;;;;;28.17;36.26;94223.16;4943855;29;20230;-96
2022/08/24 12:20:37;;;;;;;3.10;1.20;;;;;;;27.88;35.18;94209.16;4948963;28;20229;-90
2022/08/24 12:23:29;;;;;;;3.42;1.40;;;;;;;28.33;34.60;94227.66;4940843;28;20210;-90
2022/08/24 12:26:46;;;;;;;2.63;1.35;;;;;;;28.08;35.41;94215.13;4924826;29;20218;-90
2022/08/24 12:29:59;;;;;;;5.82;1.90;;;;;;;28.37;34.79;94216.88;4938554;29;20197;-89
2022/08/24 12:32:52;;;;;;;5.07;1.70;;;;;;;28.27;34.73;94219.66;4939925;29;20201;-96
2022/08/24 12:35:44;;;;;;;5.57;2.00;;;;;;;28.96;34.03;94214.47;4938071;29;20251;-93
2022/08/24 12:38:55;;;;;;;7.65;2.15;;;;;;;29.07;33.97;94212.38;4940725;28;20202;-91
2022/08/24 12:42:12;;;;;;;5.20;1.52;;;;;;;27.49;35.74;94197.16;4950077;28;20293;-94
2022/08/24 12:45:01;;;;;;;3.08;1.63;;;;;;;27.15;35.65;94202.50;4933915;28;20238;-96
2022/08/24 13:00:44;;;;;;;2.53;1.52;;;;;;;28.56;34.33;94200.44;4949478;29;20687;-94
2022/08/24 13:03:41;;;;;;;2.28;1.67;;;;;;;27.97;36.25;94199.88;4937434;29;20667;-96
2022/08/24 13:06:38;;;;;;;2.17;1.40;;;;;;;28.18;34.38;94195.06;4939473;29;20214;-96
2022/08/24 13:09:40;;;;;;;6.20;1.63;;;;;;;29.01;34.98;94201.50;4956509;28;20198;-91
2022/08/24 13:12:42;;;;;;;2.70;1.67;;;;;;;29.34;35.41;94197.38;4939568;29;20187;-94
2022/08/24 13:15:47;;;;;;;1.90;1.50;;;;;;;27.99;37.43;94199.19;4945355;29;20198;-96
2022/08/24 13:18:44;;;;;;;2.95;1.73;;;;;;;28.27;35.61;94202.34;4934593;29;20223;-95
2022/08/24 13:21:45;;;;;;;2.55;1.50;;;;;;;28.01;35.77;94194.19;4950741;28;20201;-95
2022/08/24 13:24:37;;;;;;;2.25;1.42;;;;;;;28.81;37.57;94189.84;4949088;28;20226;-96
2022/08/24 13:27:23;;;;;;;4.25;1.50;;;;;;;29.30;34.86;94193.75;4956492;29;20651;-95
2022/08/24 13:30:23;;;;;;;2.53;1.75;;;;;;;28.44;37.04;94191.72;4955866;28;20241;-92
2022/08/24 13:33:12;;;;;;;3.50;1.63;;;;;;;28.68;36.53;94185.41;4922912;29;20203;-96
2022/08/24 13:35:59;;;;;;;1.88;1.67;;;;;;;27.55;38.35;94188.63;4919243;29;20218;-96
2022/08/24 13:38:56;;;;;;;2.63;2.03;;;;;;;28.31;38.68;94184.38;4922132;29;20214;-92
2022/08/24 13:41:52;;;;;;;2.22;1.73;;;;;;;27.97;37.18;94191.25;4923149;29;20225;-92
2022/08/24 13:45:01;;;;;;;2.30;2.10;;;;;;;28.27;38.95;94190.81;5093625;23;20276;-96
2022/08/24 13:48:07;;;;;;;2.30;1.95;;;;;;;28.41;37.92;94185.19;4925456;29;20221;-96
2022/08/24 13:50:58;;;;;;;2.33;2.10;;;;;;;28.70;38.84;94182.53;4948308;28;20242;-94
2022/08/24 13:54:08;;;;;;;2.17;1.92;;;;;;;29.51;36.84;94168.56;4962966;28;20195;-95
2022/08/24 13:57:34;;;;;;;2.55;2.22;;;;;;;28.20;38.38;94186.47;4963936;28;20182;-88
2022/08/24 14:00:27;;;;;;;2.10;1.90;;;;;;;28.29;38.38;94182.22;4967492;28;20198;-95
2022/08/24 14:03:25;;;;;;;3.70;1.80;;;;;;;27.45;39.90;94170.50;4967448;28;20245;-95
2022/08/24 14:06:30;;;;;;;3.65;1.75;;;;;;;28.12;39.86;94174.81;4944872;29;20262;-96
2022/08/24 14:09:58;;;;;;;2.55;2.08;;;;;;;27.68;40.03;94172.94;4963592;29;20213;-90
2022/08/24 14:13:13;;;;;;;3.97;2.30;;;;;;;27.03;40.93;94168.56;4953155;29;20281;-96
2022/08/24 14:19:35;;;;;;;2.70;2.20;;;;;;;26.45;42.48;94174.13;4921910;29;20203;-94
2022/08/24 14:22:59;;;;;;;2.35;2.17;;;;;;;26.24;43.12;94169.47;4913167;29;20187;-95
2022/08/24 14:25:44;;;;;;;3.60;2.53;;;;;;;26.19;43.23;94163.66;4928327;29;20223;-96
2022/08/24 14:28:42;;;;;;;6.07;2.75;;;;;;;27.11;41.37;94162.16;4930813;29;20289;-96
2022/08/24 14:31:28;;;;;;;2.63;2.13;;;;;;;27.96;41.14;94169.63;4916453;29;20203;-96
2022/08/24 14:34:27;;;;;;;6.35;2.53;;;;;;;27.97;41.29;94164.59;4901904;29;20233;-93
2022/08/24 14:37:17;;;;;;;5.38;2.20;;;;;;;28.61;40.44;94157.94;4923978;29;20250;-88
2022/08/24 14:40:33;;;;;;;2.38;1.92;;;;;;;27.13;42.70;94167.94;4935442;29;20221;-95
2022/08/24 14:43:48;;;;;;;2.40;2.05;;;;;;;26.60;43.78;94164.31;4933121;29;20324;-95
2022/08/24 14:46:58;;;;;;;3.00;2.20;;;;;;;26.30;44.12;94173.19;4936183;29;20270;-96
2022/08/24 14:49:48;;;;;;;2.30;2.00;;;;;;;27.56;41.88;94158.41;4941250;29;20234;-96
2022/08/24 14:52:44;;;;;;;3.53;2.03;;;;;;;27.44;43.36;94163.28;4925701;29;20291;-95
2022/08/24 14:55:33;;;;;;;3.85;2.33;;;;;;;28.14;41.78;94166.94;4929222;29;20277;-93
2022/08/24 14:58:40;;;;;;;9.35;2.20;;;;;;;27.41;41.47;94168.28;4910474;29;20258;-94
2022/08/24 15:01:36;;;;;;;2.10;1.90;;;;;;;27.28;42.17;94175.34;4923158;29;20210;-91
2022/08/24 15:04:38;;;;;;;4.45;1.98;;;;;;;27.70;42.48;94172.97;4911451;29;20218;-93
2022/08/24 15:07:32;;;;;;;2.60;2.10;;;;;;;27.43;42.44;94179.84;4934203;29;20217;-92
2022/08/24 15:10:22;;;;;;;4.72;1.85;;;;;;;26.74;44.10;94173.13;4916183;29;20203;-91
2022/08/24 15:13:18;;;;;;;3.78;1.85;;;;;;;26.99;42.59;94162.72;4935250;29;20620;-90
2022/08/24 15:16:09;;;;;;;2.55;1.48;;;;;;;27.55;41.64;94162.72;4904797;29;20217;-90
2022/08/24 15:19:03;;;;;;;2.78;1.77;;;;;;;27.60;42.40;94164.22;4936094;29;20273;-95
2022/08/24 15:22:04;;;;;;;2.55;1.60;;;;;;;27.09;42.45;94162.16;4931699;29;20206;-93
2022/08/24 15:25:14;;;;;;;1.80;1.70;;;;;;;26.85;43.55;94160.34;4929832;29;20222;-96
2022/08/24 15:28:07;;;;;;;2.10;1.90;;;;;;;26.95;42.91;94157.66;4929989;29;20213;-95
2022/08/24 15:30:57;;;;;;;3.13;2.10;;;;;;;26.83;43.78;94157.47;4927597;29;20699;-95
2022/08/24 15:33:54;;;;;;;1.90;1.75;;;;;;;27.20;42.56;94157.97;4932424;29;20238;-90
2022/08/24 15:36:39;;;;;;;1.95;1.83;;;;;;;26.94;44.28;94155.47;4928943;29;20237;-92
2022/08/24 15:39:26;;;;;;;3.78;2.00;;;;;;;27.12;42.39;94157.84;4952613;29;20203;-94
2022/08/24 15:42:14;;;;;;;12.02;2.15;;;;;;;26.58;43.56;94161.41;4942454;28;20206;-95
2022/08/24 15:45:03;;;;;;;2.08;1.83;;;;;;;26.81;42.78;94156.69;4915393;29;20230;-89
2022/08/24 15:47:51;;;;;;;2.55;1.85;;;;;;;27.04;42.28;94157.75;4931153;29;20222;-95
2022/08/24 15:50:42;;;;;;;11.18;2.38;;;;;;;26.80;43.92;94158.84;4939920;29;20210;-95
2022/08/24 15:53:30;;;;;;;3.38;1.80;;;;;;;26.85;43.71;94171.84;4920392;29;20259;-96
2022/08/24 15:56:30;;;;;;;1.60;1.50;;;;;;;27.19;43.92;94162.28;4918483;29;20206;-96
2022/08/24 15:59:29;;;;;;;2.72;1.58;;;;;;;27.08;43.27;94152.06;4948839;28;20195;-94
2022/08/24 16:02:29;;;;;;;1.70;1.60;;;;;;;27.27;42.38;94168.84;4931132;28;20198;-92
2022/08/24 16:05:30;;;;;;;1.90;1.70;;;;;;;27.14;41.44;94163.66;4933880;29;20238;-93
2022/08/24 16:08:16;;;;;;;2.45;1.90;;;;;;;26.66;43.63;94173.03;4939772;28;20200;-92
2022/08/24 16:11:18;;;;;;;3.10;1.73;;;;;;;26.36;44.41;94158.19;4907011;29;20289;-89
2022/08/24 16:14:24;;;;;;;3.13;2.13;;;;;;;26.75;43.54;94168.84;4928807;28;20221;-91
2022/08/24 16:17:19;;;;;;;16.58;2.50;;;;;;;26.33;45.51;94171.06;4942235;29;20242;-90
2022/08/24 16:20:15;;;;;;;5.07;2.10;;;;;;;25.80;46.01;94169.44;4920766;29;20262;-89
2022/08/24 16:23:07;;;;;;;2.10;1.80;;;;;;;25.51;47.29;94168.13;4935264;29;20209;-94
2022/08/24 16:26:28;;;;;;;5.45;2.25;;;;;;;25.05;48.52;94165.81;4936820;29;20226;-94
2022/08/24 16:29:36;;;;;;;2.03;1.85;;;;;;;24.77;49.47;94177.34;4926143;29;20263;-96
2022/08/24 16:32:31;;;;;;;4.57;2.03;;;;;;;24.49;50.39;94177.47;4918656;29;20689;-93
2022/08/24 16:35:19;;;;;;;3.17;1.90;;;;;;;24.69;49.84;94170.72;4919855;29;20203;-95
2022/08/24 16:38:05;;;;;;;6.35;2.15;;;;;;;24.94;49.59;94161.25;4923512;29;20225;-95
2022/08/24 16:40:50;;;;;;;7.10;1.92;;;;;;;24.99;49.76;94168.56;4919330;29;20229;-92
2022/08/24 16:43:37;;;;;;;4.78;2.45;;;;;;;25.08;49.45;94169.44;4909898;29;20214;-96
2022/08/24 16:46:24;;;;;;;1.88;1.75;;;;;;;25.24;49.00;94176.22;4934075;29;20207;-96
2022/08/24 16:49:08;;;;;;;7.50;1.92;;;;;;;25.34;47.68;94170.69;4938512;29;20225;-94
2022/08/24 16:51:54;;;;;;;2.05;1.85;;;;;;;25.32;47.63;94175.66;4927791;29;20214;-91
2022/08/24 16:54:39;;;;;;;3.03;1.73;;;;;;;25.45;47.07;94165.16;4903900;29;20202;-94
2022/08/24 16:57:30;;;;;;;2.08;1.77;;;;;;;25.06;47.91;94164.38;4918373;29;20211;-95
2022/08/24 17:00:18;;;;;;;2.03;1.83;;;;;;;25.27;48.09;94163.38;4935747;29;20199;-96
2022/08/24 17:03:02;;;;;;;2.35;1.90;;;;;;;25.13;48.82;94153.75;4921994;29;20210;-96
2022/08/24 17:05:48;;;;;;;2.47;1.83;;;;;;;25.27;48.79;94169.13;4923331;29;20258;-96
2022/08/24 17:08:33;;;;;;;1.63;1.52;;;;;;;25.11;48.67;94168.06;4941658;28;20293;-96
2022/08/24 17:11:19;;;;;;;2.33;2.13;;;;;;;24.86;49.34;94155.34;4918305;29;20198;-95
2022/08/24 17:14:03;;;;;;;1.75;1.63;;;;;;;24.76;49.50;94152.97;4934428;29;20218;-96
2022/08/24 17:16:47;;;;;;;1.90;1.80;;;;;;;24.62;49.50;94157.69;4933673;29;20230;-95
2022/08/24 17:19:32;;;;;;;3.08;1.98;;;;;;;24.59;49.57;94171.94;4919578;29;20270;-95
2022/08/24 17:22:17;;;;;;;1.92;1.70;;;;;;;24.73;49.48;94167.94;4926555;29;20198;-96
2022/08/24 17:25:03;;;;;;;3.10;2.10;;;;;;;24.59;50.07;94163.34;4935456;29;20307;-94
2022/08/24 17:27:51;;;;;;;2.75;2.17;;;;;;;24.55;50.54;94174.72;4932510;29;20198;-96
2022/08/24 17:30:40;;;;;;;3.63;2.15;;;;;;;24.48;50.78;94173.13;4927539;29;20214;-96
2022/08/24 17:33:24;;;;;;;4.50;2.22;;;;;;;24.27;51.31;94162.59;4929409;29;20206;-96
2022/08/24 17:36:09;;;;;;;3.10;2.22;;;;;;;24.28;51.55;94164.06;4945760;28;20219;-93
2022/08/24 17:38:55;;;;;;;3.55;2.30;;;;;;;24.21;51.80;94170.31;4957986;28;20222;-92
2022/08/24 17:41:40;;;;;;;6.10;2.50;;;;;;;23.97;52.13;94171.16;4958444;28;20282;-94
2022/08/24 17:44:30;;;;;;;4.03;2.03;;;;;;;23.89;52.32;94170.94;4922913;29;20203;-95
2022/08/24 17:47:16;;;;;;;4.70;2.50;;;;;;;23.73;52.90;94174.13;4922124;29;20682;-92
2022/08/24 17:50:00;;;;;;;3.90;2.30;;;;;;;23.68;53.31;94169.72;4920149;29;20194;-95
2022/08/24 17:52:46;;;;;;;2.22;2.05;;;;;;;23.51;54.02;94178.53;4933317;29;20294;-96
2022/08/24 17:55:30;;;;;;;3.40;2.50;;;;;;;23.27;54.54;94175.69;4927047;29;20195;-96
2022/08/24 17:58:15;;;;;;;8.82;2.35;;;;;;;23.08;55.06;94179.47;4937634;29;20206;-96
2022/08/24 18:00:59;;;;;;;7.40;2.20;;;;;;;23.13;54.96;94186.75;4921161;29;20209;-95
2022/08/24 18:03:43;;;;;;;5.55;2.50;;;;;;;22.98;55.55;94186.34;4908215;29;20271;-95
2022/08/24 18:06:28;;;;;;;2.35;2.15;;;;;;;22.83;56.14;94186.59;4930925;29;20213;-95
2022/08/24 18:09:28;;;;;;;4.90;2.60;;;;;;;22.64;56.57;94184.56;4943768;29;20232;-95
2022/08/24 18:12:15;;;;;;;3.05;2.65;;;;;;;22.59;56.83;94183.69;4933591;29;20235;-96
2022/08/24 18:15:00;;;;;;;2.17;1.98;;;;;;;22.53;57.07;94184.25;4935636;29;20205;-95
2022/08/24 18:17:49;;;;;;;3.67;2.53;;;;;;;22.58;56.67;94190.81;4955257;28;20281;-96
2022/08/24 18:20:36;;;;;;;5.47;2.85;;;;;;;22.43;57.00;94186.06;4960101;28;20202;-94
2022/08/24 18:23:20;;;;;;;5.90;2.65;;;;;;;22.37;57.46;94191.59;4947267;28;20219;-92
2022/08/24 18:26:08;;;;;;;5.40;2.97;;;;;;;22.21;57.76;94185.38;4922597;29;20207;-92
2022/08/24 18:28:55;;;;;;;2.58;2.33;;;;;;;22.07;58.20;94192.06;4940172;29;20199;-96
2022/08/24 18:31:41;;;;;;;2.92;2.33;;;;;;;22.04;58.88;94196.25;4925277;29;20226;-95
2022/08/24 18:34:28;;;;;;;13.48;2.85;;;;;;;21.99;58.45;94197.50;4920671;29;20210;-91
2022/08/24 18:37:13;;;;;;;8.85;2.70;;;;;;;21.94;58.74;94210.16;4933789;29;20206;-95
2022/08/24 18:39:57;;;;;;;4.38;2.58;;;;;;;21.89;59.18;94202.88;4927251;29;20283;-91
2022/08/24 18:42:43;;;;;;;5.93;2.60;;;;;;;21.85;59.42;94211.25;4936536;29;20207;-94
2022/08/24 18:45:30;;;;;;;2.92;2.53;;;;;;;21.60;59.62;94211.84;4927253;29;20329;-96
2022/08/24 18:48:14;;;;;;;4.35;2.80;;;;;;;21.66;59.53;94203.50;4918184;29;20285;-96
2022/08/24 18:51:00;;;;;;;10.10;2.50;;;;;;;21.59;60.28;94218.94;4952879;28;20277;-96
2022/08/24 18:53:45;;;;;;;3.65;2.10;;;;;;;21.45;60.34;94212.72;4929852;29;20214;-92
2022/08/24 18:56:29;;;;;;;7.93;2.83;;;;;;;21.46;60.76;94214.19;4936018;29;20302;-96
2022/08/24 18:59:15;;;;;;;3.97;2.50;;;;;;;21.51;60.48;94212.94;4937339;29;20234;-96
2022/08/24 19:05:16;;;;;;;2.33;2.05;;;;;;;21.35;60.99;94222.38;4907988;29;20851;-95
2022/08/24 19:08:00;;;;;;;2.72;2.53;;;;;;;21.34;60.84;94220.94;4916945;29;20708;-96
2022/08/24 19:10:44;;;;;;;4.00;2.60;;;;;;;21.30;61.11;94220.03;4938285;29;20218;-95
2022/08/24 19:13:29;;;;;;;3.95;2.80;;;;;;;21.18;61.81;94225.31;4931094;29;20207;-96
2022/08/24 19:16:13;;;;;;;3.33;2.63;;;;;;;21.12;61.86;94233.59;4933436;29;20262;-95
2022/08/24 19:18:57;;;;;;;4.13;2.90;;;;;;;21.01;62.17;94229.66;4921093;29;20235;-95
2022/08/24 19:21:41;;;;;;;4.68;2.35;;;;;;;21.12;61.83;94228.63;4939902;29;20233;-96
2022/08/24 19:24:28;;;;;;;3.20;2.90;;;;;;;20.97;62.48;94232.38;4930424;29;20221;-95
2022/08/24 19:27:13;;;;;;;3.33;2.83;;;;;;;20.97;62.56;94235.22;4902526;29;20210;-95
2022/08/24 19:29:58;;;;;;;2.95;2.63;;;;;;;20.82;63.07;94233.19;4906581;29;20209;-94
2022/08/24 19:32:43;;;;;;;2.75;2.53;;;;;;;20.78;63.23;94230.22;4913433;29;20286;-96
2022/08/24 19:35:30;;;;;;;3.30;3.00;;;;;;;20.70;63.26;94218.50;4930789;29;20206;-95
2022/08/24 19:38:15;;;;;;;4.68;2.53;;;;;;;20.76;63.54;94230.13;4944948;29;20202;-95
2022/08/24 19:41:01;;;;;;;3.08;2.78;;;;;;;20.66;63.75;94232.59;4921346;29;20206;-95
2022/08/24 19:46:59;;;;;;;5.05;2.83;;;;;;;20.74;63.64;94222.22;4913686;29;20213;-96
2022/08/24 19:49:44;;;;;;;4.38;2.88;;;;;;;20.77;63.65;94220.19;4960752;28;20373;-96
2022/08/24 19:52:31;;;;;;;3.75;2.53;;;;;;;20.80;63.71;94222.44;4955393;28;20210;-96
2022/08/24 19:55:16;;;;;;;3.85;3.15;;;;;;;20.75;63.69;94220.13;4939966;28;20195;-96
2022/08/24 19:58:19;;;;;;;2.75;2.55;;;;;;;20.68;64.37;94224.09;4939944;28;20191;-93
2022/08/24 20:01:13;;;;;;;3.20;2.42;;;;;;;20.53;64.49;94229.28;4940367;28;20186;-93
2022/08/24 20:04:00;;;;;;;4.35;2.45;;;;;;;20.65;64.40;94233.97;4923066;29;20211;-96
2022/08/24 20:06:47;;;;;;;4.40;3.00;;;;;;;20.54;64.62;94219.34;4932929;29;20207;-95
2022/08/24 20:09:31;;;;;;;5.82;2.65;;;;;;;20.56;64.61;94225.09;4945148;28;20191;-95
2022/08/24 20:12:17;;;;;;;3.13;2.83;;;;;;;20.53;65.04;94220.72;4938796;28;20191;-96
2022/08/24 20:15:04;;;;;;;2.77;2.53;;;;;;;20.52;65.26;94227.81;4950817;28;20201;-96
2022/08/24 20:17:51;;;;;;;3.60;3.20;;;;;;;20.57;65.10;94220.88;4933442;28;20255;-95
2022/08/24 20:20:36;;;;;;;4.90;2.83;;;;;;;20.38;65.39;94206.59;4938476;29;20206;-96
2022/08/24 20:23:21;;;;;;;2.53;2.30;;;;;;;20.54;65.34;94230.75;4924072;29;20202;-96
2022/08/24 20:26:06;;;;;;;2.70;2.28;;;;;;;20.56;65.39;94222.25;4930665;29;20234;-94
2022/08/24 20:28:52;;;;;;;2.55;2.35;;;;;;;20.51;65.42;94225.59;4919618;29;20210;-95
2022/08/24 20:31:39;;;;;;;4.77;2.37;;;;;;;20.59;65.05;94215.28;4918172;29;20215;-96
2022/08/24 20:34:23;;;;;;;2.30;2.10;;;;;;;20.46;65.49;94224.72;4907708;29;20202;-96
2022/08/24 20:37:18;;;;;;;3.30;2.53;;;;;;;20.54;65.39;94224.31;4942312;28;20715;-96
2022/08/24 20:40:03;;;;;;;3.22;2.65;;;;;;;20.55;65.39;94220.78;4935815;29;20210;-96
2022/08/24 20:42:47;;;;;;;2.83;2.53;;;;;;;20.58;65.23;94219.50;4928701;29;20277;-96
2022/08/24 20:45:32;;;;;;;2.88;2.67;;;;;;;20.61;65.30;94225.28;4925141;29;20226;-96
2022/08/24 20:48:24;;;;;;;3.47;2.43;;;;;;;20.53;65.36;94228.53;4907241;29;20331;-96
2022/08/24 20:51:08;;;;;;;3.67;2.50;;;;;;;20.49;65.95;94211.31;4920112;29;20237;-95
2022/08/24 20:53:53;;;;;;;6.10;2.30;;;;;;;20.54;65.92;94227.91;4936082;29;20754;-92
2022/08/24 20:56:43;;;;;;;6.65;2.70;;;;;;;20.52;65.65;94216.41;4932422;29;20657;-96
2022/08/24 20:59:27;;;;;;;3.88;2.53;;;;;;;20.51;66.17;94226.34;4924623;29;20220;-96
2022/08/24 21:02:12;;;;;;;2.73;2.43;;;;;;;20.48;66.00;94215.53;4932493;29;20262;-91
2022/08/24 21:05:00;;;;;;;3.10;2.80;;;;;;;20.36;66.57;94221.50;4917480;29;20219;-96
2022/08/24 21:07:48;;;;;;;3.35;2.30;;;;;;;20.25;66.95;94224.53;4909297;29;20221;-93
2022/08/24 21:10:32;;;;;;;2.92;2.70;;;;;;;20.42;66.70;94216.03;4947634;29;20237;-96
2022/08/24 21:13:17;;;;;;;2.90;2.70;;;;;;;20.16;67.01;94198.63;4927671;29;20206;-96
2022/08/24 21:16:02;;;;;;;4.95;2.67;;;;;;;20.21;67.31;94222.25;4935690;29;20206;-95
2022/08/24 21:18:47;;;;;;;6.90;2.90;;;;;;;20.21;67.30;94216.56;4936215;29;20206;-96
2022/08/24 21:21:32;;;;;;;3.40;3.10;;;;;;;20.09;67.99;94216.09;4922074;29;20278;-94
2022/08/24 21:24:17;;;;;;;3.23;2.70;;;;;;;20.16;67.86;94220.66;4916631;29;20221;-96
2022/08/24 21:27:26;;;;;;;3.53;3.23;;;;;;;20.03;68.72;94218.69;4928304;29;20271;-95
2022/08/24 21:30:19;;;;;;;4.67;3.40;;;;;;;19.87;69.13;94224.44;4919106;29;20628;-96
2022/08/24 21:36:10;;;;;;;3.27;3.00;;;;;;;19.90;69.23;94228.09;4944417;29;20199;-94
2022/08/24 21:38:55;;;;;;;5.37;2.97;;;;;;;19.86;69.29;94227.94;4932630;29;20246;-96
2022/08/24 21:41:40;;;;;;;3.70;3.13;;;;;;;19.81;69.60;94226.31;4917445;29;20214;-96
2022/08/24 21:44:25;;;;;;;3.00;2.80;;;;;;;19.73;69.69;94216.06;4917116;29;20219;-96
2022/08/24 21:47:11;;;;;;;4.77;2.87;;;;;;;19.25;71.94;94226.06;4930064;29;20225;-96
2022/08/24 21:49:55;;;;;;;4.23;3.90;;;;;;;19.47;71.49;94222.72;4902289;29;20198;-96
2022/08/24 21:52:41;;;;;;;3.80;3.50;;;;;;;19.38;71.86;94216.66;4937866;29;20209;-96
2022/08/24 21:55:27;;;;;;;4.50;3.30;;;;;;;19.25;72.83;94219.66;4937783;28;20266;-96
2022/08/24 21:58:11;;;;;;;3.73;3.10;;;;;;;19.18;73.22;94221.47;4919803;29;20223;-96
2022/08/24 22:00:56;;;;;;;3.80;3.50;;;;;;;19.22;73.04;94224.50;4933518;29;20231;-95
2022/08/24 22:03:42;;;;;;;3.70;3.40;;;;;;;19.23;72.68;94223.13;4951511;28;20202;-96
2022/08/24 22:06:27;;;;;;;5.07;3.63;;;;;;;19.15;73.17;94210.66;4951630;28;20191;-96
2022/08/24 22:09:15;;;;;;;3.97;3.37;;;;;;;19.17;73.35;94213.59;4948529;28;20218;-95
2022/08/24 22:11:59;;;;;;;3.97;3.40;;;;;;;19.22;73.11;94220.91;4954129;28;20212;-95
2022/08/24 22:14:44;;;;;;;3.87;3.57;;;;;;;18.79;75.01;94189.91;5087143;23;20258;-95
2022/08/24 22:17:54;;;;;;;8.00;3.63;;;;;;;19.09;73.72;94202.59;4935557;29;20297;-96
2022/08/24 22:20:39;;;;;;;3.87;3.57;;;;;;;18.85;75.28;94202.25;4943513;29;20563;-96
2022/08/24 22:23:47;;;;;;;4.63;4.23;;;;;;;18.90;74.78;94184.03;4932191;29;20262;-96
2022/08/24 22:26:32;;;;;;;4.23;3.87;;;;;;;18.92;74.49;94186.97;4933636;29;20286;-95
2022/08/24 22:29:17;;;;;;;4.80;4.40;;;;;;;19.25;73.53;94197.66;4922349;29;20198;-96
2022/08/24 22:32:02;;;;;;;4.83;3.87;;;;;;;18.97;74.67;94205.63;4921042;29;20229;-96
2022/08/24 22:34:47;;;;;;;5.37;4.37;;;;;;;18.81;74.80;94178.63;4926272;29;20835;-96
2022/08/24 22:37:32;;;;;;;5.60;4.43;;;;;;;18.87;75.21;94167.56;4925617;29;20225;-96
2022/08/24 22:40:18;;;;;;;7.40;4.07;;;;;;;18.69;75.50;94161.81;4928446;29;20206;-96
2022/08/24 22:43:04;;;;;;;5.33;4.33;;;;;;;18.97;75.29;94191.44;4934531;29;20191;-95
2022/08/24 22:45:58;;;;;;;5.17;3.70;;;;;;;18.82;75.29;94163.81;4922504;29;20223;-96
2022/08/24 22:48:48;;;;;;;5.10;4.33;;;;;;;19.09;74.17;94164.94;4935809;29;20254;-96
2022/08/24 22:51:34;;;;;;;5.57;4.80;;;;;;;19.16;73.74;94170.25;4937846;29;20254;-96
2022/08/24 22:54:19;;;;;;;5.63;4.90;;;;;;;19.11;73.60;94162.19;4920769;29;20202;-96
2022/08/24 22:57:04;;;;;;;5.20;4.77;;;;;;;19.04;73.61;94163.31;4918974;29;20724;-96
2022/08/24 22:59:49;;;;;;;4.73;4.33;;;;;;;18.99;73.93;94171.66;4923345;29;20241;-96
2022/08/24 23:02:33;;;;;;;6.97;4.57;;;;;;;18.89;74.78;94171.19;4911792;29;20214;-96
2022/08/24 23:05:18;;;;;;;5.87;5.13;;;;;;;18.61;75.98;94172.78;4924781;29;20292;-96
2022/08/24 23:08:04;;;;;;;6.80;4.93;;;;;;;18.30;78.05;94152.88;4940919;29;20261;-96
2022/08/24 23:10:50;;;;;;;6.00;5.07;;;;;;;18.43;78.38;94152.06;4938167;29;20213;-96
2022/08/24 23:14:05;;;;;;;7.20;5.00;;;;;;;18.33;78.59;94165.78;4914469;29;20199;-95
2022/08/24 23:17:00;;;;;;;7.27;4.80;;;;;;;18.43;78.03;94141.44;4930320;29;20239;-96
2022/08/24 23:22:54;;;;;;;4.97;4.37;;;;;;;18.54;77.43;94148.31;4922589;29;20298;-96